createdAt,value
2023-04-07T00:02:16.737Z,25.21
2023-04-07T00:04:44.005Z,23.42
2023-04-07T00:07:11.229Z,22.12
2023-04-07T00:09:38.750Z,21.01
2023-04-07T00:12:06.951Z,20.18
2023-04-07T00:14:34.639Z,19.31
2023-04-07T00:17:02.078Z,18.66
2023-04-07T00:19:29.246Z,17.71
2023-04-07T00:21:56.198Z,16.96
2023-04-07T00:24:31.504Z,16.69
2023-04-07T00:27:01.922Z,16.19
2023-04-07T00:29:29.311Z,15.52
2023-04-07T00:31:56.418Z,14.88
2023-04-07T00:34:23.646Z,13.97
2023-04-07T00:36:54.505Z,13.07
2023-04-07T00:39:21.571Z,12.61
2023-04-07T00:41:49.478Z,12.04
2023-04-07T00:44:16.571Z,11.28
2023-04-07T00:46:43.782Z,11.14
2023-04-07T00:49:13.300Z,11.11
2023-04-07T00:51:40.872Z,10.59
2023-04-07T00:54:08.442Z,10.41
2023-04-07T00:56:36.402Z,10.01
2023-04-07T00:59:07.113Z,9.82
2023-04-07T01:01:40.910Z,9.43
2023-04-07T01:04:32.311Z,9.08
2023-04-07T01:07:14.351Z,9.25
2023-04-07T01:09:55.780Z,9.16
2023-04-07T01:12:34.326Z,9.35
2023-04-07T01:15:08.288Z,9.12
2023-04-07T01:17:42.499Z,8.73
2023-04-07T01:20:13.014Z,8.34
2023-04-07T01:22:47.327Z,8.35
2023-04-07T01:25:33.396Z,8.38
2023-04-07T01:28:03.789Z,8.47
2023-04-07T01:30:33.235Z,8.24
2023-04-07T01:33:00.719Z,8.31
2023-04-07T01:35:29.286Z,8.24
2023-04-07T01:37:56.539Z,8.18
2023-04-07T01:40:23.780Z,8.08
2023-04-07T01:42:51.319Z,8.04
2023-04-07T01:45:18.906Z,8.23
2023-04-07T01:47:46.741Z,8.33
2023-04-07T01:50:14.153Z,8.22
2023-04-07T01:52:42.055Z,8.51
2023-04-07T01:55:10.244Z,8.46
2023-04-07T01:57:44.153Z,8.68
2023-04-07T02:00:15.611Z,8.58
2023-04-07T02:02:46.348Z,8.69
2023-04-07T02:05:15.282Z,8.79
2023-04-07T02:07:50.567Z,8.98
2023-04-07T02:10:19.516Z,9.17
2023-04-07T02:12:47.256Z,9.25
2023-04-07T02:15:17.509Z,9.45
2023-04-07T02:17:48.949Z,9.33
2023-04-07T02:20:16.709Z,9.56
2023-04-07T02:22:44.752Z,10.03
2023-04-07T02:25:27.986Z,10.26
2023-04-07T02:27:56.367Z,10.03
2023-04-07T02:30:24.141Z,10.49
2023-04-07T02:32:52.277Z,10.55
2023-04-07T02:35:20.800Z,10.32
2023-04-07T02:37:47.916Z,10.49
2023-04-07T02:40:15.543Z,10.30
2023-04-07T02:42:42.939Z,10.80
2023-04-07T02:45:11.020Z,10.59
2023-04-07T02:47:38.677Z,10.55
2023-04-07T02:50:06.582Z,10.50
2023-04-07T02:52:35.995Z,10.65
2023-04-07T02:55:09.777Z,10.28
2023-04-07T02:57:36.882Z,10.46
2023-04-07T03:00:09.939Z,10.60
2023-04-07T03:02:56.429Z,10.52
2023-04-07T03:05:24.103Z,10.15
2023-04-07T03:07:51.298Z,10.14
2023-04-07T03:10:18.796Z,10.08
2023-04-07T03:12:46.293Z,10.15
2023-04-07T03:15:13.904Z,9.40
2023-04-07T03:17:46.268Z,9.08
2023-04-07T03:20:13.834Z,9.09
2023-04-07T03:22:41.011Z,9.15
2023-04-07T03:25:15.302Z,9.40
2023-04-07T03:27:42.878Z,9.12
2023-04-07T03:30:13.714Z,8.71
2023-04-07T03:32:41.249Z,8.55
2023-04-07T03:35:10.005Z,8.89
2023-04-07T03:37:37.981Z,8.86
2023-04-07T03:40:10.114Z,8.83
2023-04-07T03:42:37.645Z,7.87
2023-04-07T03:45:07.782Z,7.21
2023-04-07T03:47:38.280Z,7.35
2023-04-07T03:50:07.317Z,7.01
2023-04-07T03:52:42.719Z,7.42
2023-04-07T03:55:21.073Z,7.52
2023-04-07T03:57:48.729Z,7.61
2023-04-07T04:00:16.316Z,7.65
2023-04-07T04:02:43.640Z,7.59
2023-04-07T04:05:16.067Z,7.98
2023-04-07T04:07:43.485Z,7.88
2023-04-07T04:10:11.501Z,7.92
2023-04-07T04:12:43.269Z,7.35
2023-04-07T04:15:13.350Z,7.70
2023-04-07T04:17:41.335Z,7.91
2023-04-07T04:20:09.904Z,7.53
2023-04-07T04:22:47.556Z,7.91
2023-04-07T04:25:16.437Z,7.69
2023-04-07T04:27:48.794Z,7.85
2023-04-07T04:30:20.509Z,7.80
2023-04-07T04:32:51.997Z,7.74
2023-04-07T04:35:24.677Z,7.82
2023-04-07T04:38:18.993Z,8.35
2023-04-07T04:41:03.232Z,8.30
2023-04-07T04:43:31.952Z,8.76
2023-04-07T04:46:01.226Z,8.74
2023-04-07T04:48:33.242Z,8.51
2023-04-07T04:51:01.165Z,8.76
2023-04-07T04:53:28.530Z,8.98
2023-04-07T04:55:59.696Z,9.10
2023-04-07T04:58:40.251Z,9.30
2023-04-07T05:01:08.696Z,9.51
2023-04-07T05:03:43.060Z,9.34
2023-04-07T05:06:22.611Z,9.58
2023-04-07T05:08:52.174Z,9.87
2023-04-07T05:11:23.739Z,9.99
2023-04-07T05:13:53.863Z,10.13
2023-04-07T05:16:21.524Z,10.28
2023-04-07T05:18:49.594Z,10.69
2023-04-07T05:21:20.095Z,10.87
2023-04-07T05:23:48.162Z,10.94
2023-04-07T05:26:15.573Z,10.86
2023-04-07T05:28:43.867Z,10.70
2023-04-07T05:31:17.058Z,10.96
2023-04-07T05:33:47.286Z,10.50
2023-04-07T05:36:14.840Z,10.90
2023-04-07T05:38:42.776Z,10.92
2023-04-07T05:41:14.353Z,10.76
2023-04-07T05:43:41.631Z,10.50
2023-04-07T05:46:09.602Z,10.40
2023-04-07T05:48:46.246Z,10.61
2023-04-07T05:51:15.563Z,10.22
2023-04-07T05:53:43.433Z,10.18
2023-04-07T05:56:11.081Z,10.44
2023-04-07T05:58:47.242Z,10.29
2023-04-07T06:01:16.189Z,10.41
2023-04-07T06:03:44.420Z,10.67
2023-04-07T06:06:16.608Z,10.68
2023-04-07T06:08:46.300Z,10.31
2023-04-07T06:11:14.131Z,9.97
2023-04-07T06:13:41.514Z,9.93
2023-04-07T06:16:09.379Z,10.35
2023-04-07T06:18:38.151Z,10.04
2023-04-07T06:21:07.262Z,9.87
2023-04-07T06:23:34.629Z,10.03
2023-04-07T06:26:01.825Z,10.22
2023-04-07T06:28:30.060Z,10.43
2023-04-07T06:30:59.820Z,9.70
2023-04-07T06:33:28.605Z,9.75
2023-04-07T06:35:57.270Z,10.06
2023-04-07T06:38:24.734Z,9.60
2023-04-07T06:40:51.998Z,9.91
2023-04-07T06:43:19.387Z,9.85
2023-04-07T06:45:55.303Z,9.98
2023-04-07T06:48:23.100Z,9.75
2023-04-07T06:50:50.521Z,9.88
2023-04-07T06:53:17.794Z,9.49
2023-04-07T06:55:45.097Z,9.77
2023-04-07T06:58:12.503Z,9.76
2023-04-07T07:00:40.169Z,9.29
2023-04-07T07:03:08.104Z,9.35
2023-04-07T07:05:36.028Z,9.47
2023-04-07T07:08:03.159Z,9.19
2023-04-07T07:10:30.340Z,8.92
2023-04-07T07:12:57.508Z,8.86
2023-04-07T07:15:24.836Z,9.00
2023-04-07T07:17:52.412Z,9.19
2023-04-07T07:20:19.931Z,8.81
2023-04-07T07:22:48.053Z,8.80
2023-04-07T07:25:15.582Z,8.67
2023-04-07T07:27:42.847Z,8.57
2023-04-07T07:30:10.459Z,8.53
2023-04-07T07:32:37.815Z,8.96
2023-04-07T07:35:05.467Z,8.95
2023-04-07T07:37:33.416Z,8.74
2023-04-07T07:40:01.717Z,8.91
2023-04-07T07:42:30.755Z,9.02
2023-04-07T07:44:58.367Z,9.11
2023-04-07T07:47:26.777Z,8.87
2023-04-07T07:49:54.308Z,8.59
2023-04-07T07:52:22.034Z,8.81
2023-04-07T07:54:50.286Z,9.05
2023-04-07T07:57:17.828Z,8.70
2023-04-07T07:59:45.863Z,8.74
2023-04-07T08:02:13.488Z,9.03
2023-04-07T08:04:41.752Z,8.70
2023-04-07T08:07:09.072Z,9.03
2023-04-07T08:09:36.499Z,8.68
2023-04-07T08:12:03.804Z,8.85
2023-04-07T08:14:30.845Z,8.90
2023-04-07T08:16:57.958Z,8.63
2023-04-07T08:19:25.471Z,8.84
2023-04-07T08:21:52.808Z,9.22
2023-04-07T08:24:20.018Z,8.92
2023-04-07T08:26:47.697Z,9.23
2023-04-07T08:29:15.206Z,8.92
2023-04-07T08:31:42.507Z,9.21
2023-04-07T08:34:09.669Z,8.90
2023-04-07T08:36:37.475Z,8.83
2023-04-07T08:39:05.470Z,8.60
2023-04-07T08:41:39.308Z,8.66
2023-04-07T08:44:10.240Z,8.40
2023-04-07T08:46:40.885Z,8.22
2023-04-07T08:49:09.923Z,7.64
2023-04-07T08:51:37.915Z,7.67
2023-04-07T08:54:12.295Z,8.27
2023-04-07T08:56:41.342Z,7.62
2023-04-07T08:59:14.587Z,7.38
2023-04-07T09:01:42.229Z,7.38
2023-04-07T09:04:10.033Z,7.94
2023-04-07T09:06:37.771Z,7.71
2023-04-07T09:09:08.148Z,7.37
2023-04-07T09:11:36.716Z,7.33
2023-04-07T09:14:04.124Z,7.42
2023-04-07T09:16:31.495Z,7.60
2023-04-07T09:18:59.079Z,7.50
2023-04-07T09:21:27.045Z,7.94
2023-04-07T09:23:54.332Z,7.77
2023-04-07T09:26:24.576Z,8.04
2023-04-07T09:28:59.563Z,7.98
2023-04-07T09:31:49.887Z,8.17
2023-04-07T09:34:34.337Z,8.31
2023-04-07T09:37:01.867Z,8.09
2023-04-07T09:39:29.630Z,8.13
2023-04-07T09:41:57.965Z,8.44
2023-04-07T09:44:25.372Z,8.39
2023-04-07T09:46:53.361Z,8.46
2023-04-07T09:49:21.161Z,8.44
2023-04-07T09:52:07.163Z,8.53
2023-04-07T09:54:38.742Z,8.23
2023-04-07T09:57:10.413Z,8.54
2023-04-07T09:59:38.802Z,8.45
2023-04-07T10:02:06.388Z,8.83
2023-04-07T10:04:33.724Z,8.91
2023-04-07T10:07:01.196Z,8.79
2023-04-07T10:09:28.807Z,8.72
2023-04-07T10:11:57.961Z,8.80
2023-04-07T10:14:34.697Z,8.84
2023-04-07T10:17:03.398Z,8.64
2023-04-07T10:19:32.627Z,9.17
2023-04-07T10:22:00.009Z,9.01
2023-04-07T10:24:52.255Z,9.29
2023-04-07T10:27:21.525Z,9.23
2023-04-07T10:29:50.218Z,9.17
2023-04-07T10:32:17.461Z,9.40
2023-04-07T10:34:50.426Z,9.33
2023-04-07T10:37:20.985Z,9.33
2023-04-07T10:39:49.556Z,9.49
2023-04-07T10:42:41.572Z,9.34
2023-04-07T10:45:09.435Z,9.23
2023-04-07T10:48:09.302Z,9.16
2023-04-07T10:50:37.447Z,9.21
2023-04-07T10:53:12.355Z,9.19
2023-04-07T10:55:40.701Z,9.20
2023-04-07T10:58:14.957Z,9.18
2023-04-07T11:00:42.612Z,9.41
2023-04-07T11:03:13.475Z,8.94
2023-04-07T11:05:41.517Z,9.13
2023-04-07T11:08:09.014Z,9.07
2023-04-07T11:10:36.544Z,8.99
2023-04-07T11:13:07.795Z,9.23
2023-04-07T11:15:37.876Z,9.44
2023-04-07T11:18:16.557Z,9.55
2023-04-07T11:20:48.768Z,9.51
2023-04-07T11:23:16.462Z,9.52
2023-04-07T11:25:45.126Z,9.97
2023-04-07T11:28:13.126Z,10.02
2023-04-07T11:30:50.050Z,10.19
2023-04-07T11:33:22.093Z,10.16
2023-04-07T11:35:53.276Z,10.22
2023-04-07T11:38:21.334Z,10.39
2023-04-07T11:40:48.814Z,10.03
2023-04-07T11:43:19.746Z,9.92
2023-04-07T11:45:47.999Z,9.98
2023-04-07T11:48:29.560Z,10.07
2023-04-07T11:50:56.700Z,10.05
2023-04-07T11:53:28.853Z,10.03
2023-04-07T11:56:09.965Z,10.15
2023-04-07T11:58:37.508Z,10.03
2023-04-07T12:01:08.246Z,10.15
2023-04-07T12:03:36.782Z,10.22
2023-04-07T12:06:04.550Z,10.29
2023-04-07T12:08:42.497Z,10.46
2023-04-07T12:11:10.136Z,10.34
2023-04-07T12:13:37.794Z,11.01
2023-04-07T12:16:05.604Z,10.76
2023-04-07T12:18:33.256Z,10.82
2023-04-07T12:21:00.369Z,10.88
2023-04-07T12:23:27.653Z,11.19
2023-04-07T12:25:54.661Z,11.56
2023-04-07T12:28:22.032Z,11.70
2023-04-07T12:30:49.090Z,12.12
2023-04-07T12:33:16.967Z,11.96
2023-04-07T12:35:44.889Z,12.18
2023-04-07T12:38:12.727Z,12.03
2023-04-07T12:40:39.728Z,12.47
2023-04-07T12:43:07.405Z,12.55
2023-04-07T12:45:34.766Z,12.88
2023-04-07T12:48:02.738Z,12.78
2023-04-07T12:50:30.307Z,12.99
2023-04-07T12:52:59.874Z,12.83
2023-04-07T12:55:26.923Z,13.50
2023-04-07T12:57:55.850Z,13.43
2023-04-07T13:00:23.013Z,13.33
2023-04-07T13:02:50.485Z,13.52
2023-04-07T13:05:18.861Z,13.61
2023-04-07T13:07:47.373Z,13.61
2023-04-07T13:10:16.376Z,13.71
2023-04-07T13:12:43.886Z,13.64
2023-04-07T13:15:11.645Z,13.58
2023-04-07T13:17:39.209Z,13.92
2023-04-07T13:20:07.437Z,13.78
2023-04-07T13:22:36.037Z,13.96
2023-04-07T13:25:04.258Z,13.86
2023-04-07T13:27:31.286Z,13.26
2023-04-07T13:29:58.637Z,13.49
2023-04-07T13:32:26.973Z,14.31
2023-04-07T13:34:55.696Z,13.77
2023-04-07T13:37:23.265Z,13.90
2023-04-07T13:39:51.412Z,14.59
2023-04-07T13:42:20.660Z,15.18
2023-04-07T13:44:50.335Z,14.67
2023-04-07T13:47:21.575Z,14.93
2023-04-07T13:49:49.210Z,15.60
2023-04-07T13:52:17.542Z,15.28
2023-04-07T13:54:44.957Z,15.70
2023-04-07T13:57:14.500Z,15.02
2023-04-07T13:59:41.861Z,15.11
2023-04-07T14:02:09.128Z,15.25
2023-04-07T14:04:37.001Z,16.16
2023-04-07T14:07:04.170Z,15.84
2023-04-07T14:09:31.696Z,16.55
2023-04-07T14:11:59.310Z,15.94
2023-04-07T14:14:26.814Z,16.90
2023-04-07T14:16:54.472Z,16.03
2023-04-07T14:19:24.830Z,16.89
2023-04-07T14:21:52.213Z,17.41
2023-04-07T14:24:19.708Z,16.70
2023-04-07T14:26:46.916Z,17.06
2023-04-07T14:29:14.689Z,27.30
2023-04-07T14:31:42.723Z,30.06
2023-04-07T14:34:10.021Z,32.70
2023-04-07T14:36:37.402Z,34.89
2023-04-07T14:39:04.862Z,36.57
2023-04-07T14:41:32.059Z,37.73
2023-04-07T14:43:59.797Z,39.01
2023-04-07T14:46:27.265Z,40.02
2023-04-07T14:48:54.761Z,41.00
2023-04-07T14:51:22.354Z,41.78
2023-04-07T14:53:55.374Z,42.63
2023-04-07T14:56:22.423Z,43.62
2023-04-07T14:58:49.813Z,44.19
2023-04-07T15:01:17.546Z,44.66
2023-04-07T15:03:46.522Z,45.86
2023-04-07T15:06:14.010Z,46.14
2023-04-07T15:08:41.705Z,46.17
2023-04-07T15:11:09.469Z,47.13
2023-04-07T15:13:36.870Z,47.18
2023-04-07T15:16:09.016Z,47.92
2023-04-07T15:18:38.109Z,47.76
2023-04-07T15:21:05.881Z,48.11
2023-04-07T15:23:33.849Z,48.46
2023-04-07T15:26:01.434Z,48.58
2023-04-07T15:28:28.909Z,49.26
2023-04-07T15:30:56.255Z,49.46
2023-04-07T15:33:24.416Z,49.76
2023-04-07T15:35:51.533Z,50.04
2023-04-07T15:38:18.956Z,50.44
2023-04-07T15:40:46.329Z,50.77
2023-04-07T15:43:13.783Z,50.43
2023-04-07T15:45:44.518Z,50.29
2023-04-07T15:48:12.297Z,50.22
2023-04-07T15:50:39.885Z,50.81
2023-04-07T15:53:07.026Z,50.86
2023-04-07T15:55:34.833Z,50.53
2023-04-07T15:58:02.871Z,51.13
2023-04-07T16:00:34.110Z,50.56
2023-04-07T16:03:02.835Z,50.80
2023-04-07T16:05:30.349Z,51.25
2023-04-07T16:07:57.918Z,51.50
2023-04-07T16:10:25.079Z,51.62
2023-04-07T16:12:52.912Z,52.66
2023-04-07T16:15:28.957Z,53.23
2023-04-07T16:18:07.985Z,53.80
2023-04-07T16:20:35.428Z,53.80
2023-04-07T16:23:02.870Z,54.31
2023-04-07T16:25:30.856Z,54.32
2023-04-07T16:27:57.877Z,54.01
2023-04-07T16:30:25.362Z,53.90
2023-04-07T16:32:52.952Z,54.67
2023-04-07T16:35:20.611Z,54.65
2023-04-07T16:37:49.616Z,54.70
2023-04-07T16:40:16.998Z,54.56
2023-04-07T16:42:44.095Z,54.92
2023-04-07T16:45:11.595Z,55.22
2023-04-07T16:47:39.592Z,55.72
2023-04-07T16:50:07.221Z,55.84
2023-04-07T16:52:34.827Z,55.21
2023-04-07T16:55:02.267Z,55.00
2023-04-07T16:57:29.878Z,54.52
2023-04-07T16:59:57.418Z,55.26
2023-04-07T17:02:25.246Z,55.63
2023-04-07T17:04:52.309Z,55.93
2023-04-07T17:07:20.029Z,55.87
2023-04-07T17:09:47.020Z,55.62
2023-04-07T17:12:14.701Z,56.01
2023-04-07T17:14:42.540Z,56.30
2023-04-07T17:17:09.764Z,55.38
2023-04-07T17:19:37.309Z,55.58
2023-04-07T17:22:04.854Z,56.28
2023-04-07T17:24:32.568Z,55.51
2023-04-07T17:26:59.518Z,56.23
2023-04-07T17:29:28.818Z,56.31
2023-04-07T17:31:56.305Z,56.16
2023-04-07T17:34:24.004Z,56.01
2023-04-07T17:36:51.839Z,55.93
2023-04-07T17:39:19.387Z,56.26
2023-04-07T17:41:47.821Z,56.07
2023-04-07T17:44:15.330Z,55.91
2023-04-07T17:46:42.829Z,56.05
2023-04-07T17:49:09.877Z,56.12
2023-04-07T17:51:37.463Z,56.08
2023-04-07T17:54:04.750Z,55.93
2023-04-07T17:56:32.545Z,55.83
2023-04-07T17:58:59.890Z,55.76
2023-04-07T18:01:27.551Z,55.56
2023-04-07T18:03:54.863Z,55.76
2023-04-07T18:06:22.646Z,55.85
2023-04-07T18:08:52.723Z,55.88
2023-04-07T18:11:21.630Z,56.52
2023-04-07T18:13:49.107Z,56.29
2023-04-07T18:16:21.857Z,56.06
2023-04-07T18:18:49.342Z,55.49
2023-04-07T18:21:16.698Z,56.30
2023-04-07T18:23:44.060Z,56.36
2023-04-07T18:26:11.377Z,56.00
2023-04-07T18:28:38.834Z,55.73
2023-04-07T18:31:07.353Z,55.52
2023-04-07T18:33:35.340Z,55.35
2023-04-07T18:36:07.043Z,54.69
2023-04-07T18:38:36.103Z,55.22
2023-04-07T18:41:03.990Z,55.10
2023-04-07T18:43:31.513Z,54.85
2023-04-07T18:45:58.773Z,54.95
2023-04-07T18:48:27.095Z,55.14
2023-04-07T18:50:55.193Z,55.23
2023-04-07T18:53:22.883Z,55.38
2023-04-07T18:55:51.026Z,55.16
2023-04-07T18:58:19.040Z,55.14
2023-04-07T19:00:46.985Z,55.26
2023-04-07T19:03:14.496Z,54.96
2023-04-07T19:05:42.361Z,55.34
2023-04-07T19:08:09.825Z,55.10
2023-04-07T19:10:37.246Z,55.54
2023-04-07T19:13:04.716Z,55.64
2023-04-07T19:15:37.989Z,55.81
2023-04-07T19:18:05.102Z,55.69
2023-04-07T19:20:33.468Z,55.89
2023-04-07T19:23:02.039Z,55.55
2023-04-07T19:25:30.791Z,54.95
2023-04-07T19:27:58.626Z,54.80
2023-04-07T19:30:25.919Z,54.79
2023-04-07T19:32:53.847Z,54.72
2023-04-07T19:35:21.317Z,54.30
2023-04-07T19:37:48.492Z,54.36
2023-04-07T19:40:16.091Z,54.11
2023-04-07T19:42:43.204Z,54.24
2023-04-07T19:45:11.119Z,53.82
2023-04-07T19:47:38.870Z,53.78
2023-04-07T19:50:06.675Z,53.69
2023-04-07T19:52:34.281Z,53.94
2023-04-07T19:55:02.696Z,53.79
2023-04-07T19:57:31.230Z,54.11
2023-04-07T19:59:58.883Z,54.00
2023-04-07T20:02:26.248Z,54.14
2023-04-07T20:04:53.642Z,54.11
2023-04-07T20:07:22.484Z,53.95
2023-04-07T20:09:53.681Z,53.75
2023-04-07T20:12:21.327Z,53.46
2023-04-07T20:14:48.315Z,53.09
2023-04-07T20:17:16.212Z,52.78
2023-04-07T20:19:43.509Z,52.26
2023-04-07T20:22:11.171Z,52.56
2023-04-07T20:24:39.181Z,52.41
2023-04-07T20:27:06.600Z,52.43
2023-04-07T20:29:34.265Z,52.81
2023-04-07T20:32:01.218Z,53.06
2023-04-07T20:34:28.835Z,53.39
2023-04-07T20:36:56.344Z,53.10
2023-04-07T20:39:23.690Z,53.20
2023-04-07T20:41:50.785Z,52.78
2023-04-07T20:44:18.475Z,52.49
2023-04-07T20:46:48.730Z,52.98
2023-04-07T20:49:15.979Z,53.46
2023-04-07T20:51:43.641Z,53.43
2023-04-07T20:54:10.794Z,54.02
2023-04-07T20:56:38.956Z,54.03
2023-04-07T20:59:06.143Z,54.60
2023-04-07T21:01:33.620Z,55.03
2023-04-07T21:04:02.372Z,54.43
2023-04-07T21:06:31.230Z,53.96
2023-04-07T21:08:58.708Z,54.27
2023-04-07T21:11:26.144Z,54.94
2023-04-07T21:13:53.359Z,55.20
2023-04-07T21:16:20.492Z,55.72
2023-04-07T21:18:47.969Z,56.39
2023-04-07T21:21:15.274Z,56.91
2023-04-07T21:23:43.125Z,57.13
2023-04-07T21:26:10.766Z,57.75
2023-04-07T21:28:39.834Z,58.01
2023-04-07T21:31:07.527Z,57.40
2023-04-07T21:33:34.864Z,57.45
2023-04-07T21:36:03.493Z,57.34
2023-04-07T21:38:31.230Z,57.48
2023-04-07T21:40:58.290Z,57.66
2023-04-07T21:43:28.603Z,56.67
2023-04-07T21:45:55.800Z,56.89
2023-04-07T21:48:23.464Z,56.67
2023-04-07T21:50:53.938Z,57.48
2023-04-07T21:53:21.307Z,57.69
2023-04-07T21:55:48.417Z,58.93
2023-04-07T21:58:16.252Z,59.19
2023-04-07T22:00:43.237Z,59.76
2023-04-07T22:03:10.554Z,60.99
2023-04-07T22:05:38.343Z,61.89
2023-04-07T22:08:06.624Z,63.22
2023-04-07T22:10:34.045Z,63.76
2023-04-07T22:13:01.366Z,64.46
2023-04-07T22:15:28.515Z,64.22
2023-04-07T22:17:58.928Z,65.10
2023-04-07T22:20:26.877Z,64.79
2023-04-07T22:22:57.012Z,65.32
2023-04-07T22:25:24.785Z,65.96
2023-04-07T22:27:52.722Z,66.02
2023-04-07T22:30:20.567Z,66.23
2023-04-07T22:32:48.243Z,67.10
2023-04-07T22:35:15.914Z,67.24
2023-04-07T22:37:43.148Z,66.73
2023-04-07T22:40:10.553Z,67.13
2023-04-07T22:42:39.202Z,67.29
2023-04-07T22:45:07.342Z,66.81
2023-04-07T22:47:34.588Z,67.65
2023-04-07T22:50:01.693Z,67.19
2023-04-07T22:52:29.471Z,68.20
2023-04-07T22:54:57.606Z,68.27
2023-04-07T22:57:25.815Z,68.03
2023-04-07T22:59:53.214Z,67.38
2023-04-07T23:02:21.038Z,68.23
2023-04-07T23:04:49.610Z,67.61
2023-04-07T23:07:16.872Z,68.36
2023-04-07T23:09:44.255Z,68.41
2023-04-07T23:12:11.608Z,68.91
2023-04-07T23:14:38.708Z,68.04
2023-04-07T23:17:06.146Z,68.04
2023-04-07T23:19:33.174Z,66.38
2023-04-07T23:22:00.449Z,67.04
2023-04-07T23:24:27.824Z,66.44
2023-04-07T23:26:56.272Z,64.47
2023-04-07T23:29:23.673Z,65.01
2023-04-07T23:31:51.037Z,65.28
2023-04-07T23:34:18.043Z,65.62
2023-04-07T23:36:45.455Z,66.28
2023-04-07T23:39:12.982Z,66.38
2023-04-07T23:41:40.670Z,66.61
2023-04-07T23:44:08.478Z,66.70
2023-04-07T23:46:35.873Z,67.03
2023-04-07T23:49:08.599Z,67.47
2023-04-07T23:51:36.524Z,68.86
2023-04-07T23:54:03.636Z,68.16
2023-04-07T23:56:31.966Z,68.02
2023-04-07T23:58:59.211Z,68.45
